Time;durP1;ratioP1;P1;durP2;ratioP2;P2;SDS_P1;SDS_P2;PMS_P1;PMS_P2;Temp;Humidity;BMP_temperature;BMP_pressure;BME280_temperature;BME280_humidity;BME280_pressure;Samples;Min_cycle;Max_cycle;Signal;HPM_P1;HPM_P2
2023/03/28 00:00:03;;;;;;;2.58;0.85;;;11.20;73.60;;;;;;4974584;28;20069;-84
2023/03/28 00:02:29;;;;;;;2.95;0.82;;;11.20;73.90;;;;;;4974323;28;20554;-83
2023/03/28 00:04:55;;;;;;;4.75;1.00;;;11.20;73.60;;;;;;4974607;28;20027;-85
2023/03/28 00:07:20;;;;;;;2.63;0.80;;;11.10;73.80;;;;;;4974181;28;20033;-83
2023/03/28 00:09:48;;;;;;;5.15;1.20;;;11.20;73.90;;;;;;4975602;28;20026;-82
2023/03/28 00:12:13;;;;;;;4.15;1.00;;;11.10;73.80;;;;;;4974221;28;20447;-83
2023/03/28 00:14:39;;;;;;;4.28;0.98;;;11.20;74.00;;;;;;4974245;28;20030;-83
2023/03/28 00:17:06;;;;;;;3.28;1.20;;;11.20;73.70;;;;;;4974148;28;20042;-83
2023/03/28 00:19:32;;;;;;;3.20;1.05;;;11.20;73.90;;;;;;4975290;28;20023;-84
2023/03/28 00:21:58;;;;;;;3.28;0.85;;;11.20;74.00;;;;;;4974075;28;20444;-84
2023/03/28 00:24:23;;;;;;;4.03;1.10;;;11.10;73.80;;;;;;4974248;28;20065;-83
2023/03/28 00:26:53;;;;;;;2.47;0.68;;;11.10;73.90;;;;;;4973935;28;20027;-83
2023/03/28 00:29:20;;;;;;;3.53;0.90;;;11.20;73.90;;;;;;4975449;28;20125;-84
2023/03/28 00:31:48;;;;;;;4.45;0.95;;;11.10;73.60;;;;;;4973830;28;20027;-86
2023/03/28 00:34:14;;;;;;;3.72;1.02;;;11.10;74.40;;;;;;4974092;28;20026;-84
2023/03/28 00:36:40;;;;;;;4.10;0.75;;;11.20;73.90;;;;;;4973841;28;20097;-84
2023/03/28 00:39:09;;;;;;;3.20;0.93;;;11.10;73.90;;;;;;4974349;28;20499;-84
2023/03/28 00:41:39;;;;;;;4.15;0.90;;;11.10;73.80;;;;;;4974012;28;20450;-84
2023/03/28 00:44:38;;;;;;;4.20;1.10;;;11.10;74.00;;;;;;4975117;28;20027;-84
2023/03/28 00:47:09;;;;;;;3.20;0.90;;;11.10;74.00;;;;;;4974870;28;20031;-83
2023/03/28 00:49:35;;;;;;;3.30;0.98;;;11.10;74.00;;;;;;4974774;28;20042;-83
2023/03/28 00:52:03;;;;;;;2.65;0.70;;;11.10;73.90;;;;;;4973345;28;20033;-84
2023/03/28 00:54:32;;;;;;;4.30;1.05;;;11.00;73.90;;;;;;4973540;28;20492;-81
2023/03/28 00:57:02;;;;;;;4.50;1.08;;;11.10;73.90;;;;;;4973068;28;20472;-84
2023/03/28 00:59:30;;;;;;;3.35;0.90;;;11.20;74.00;;;;;;4973608;28;20031;-83
2023/03/28 01:01:56;;;;;;;3.25;1.08;;;11.10;74.00;;;;;;4973268;28;20118;-83
2023/03/28 01:04:28;;;;;;;3.45;0.93;;;11.10;73.90;;;;;;4973233;28;20113;-83
2023/03/28 01:06:57;;;;;;;3.97;1.00;;;11.10;74.00;;;;;;4973274;28;20112;-83
2023/03/28 01:09:23;;;;;;;4.72;0.98;;;11.10;74.00;;;;;;4974591;28;20105;-83
2023/03/28 01:11:51;;;;;;;3.05;0.70;;;11.10;74.10;;;;;;4974519;28;20029;-84
2023/03/28 01:14:20;;;;;;;4.40;1.00;;;11.10;74.10;;;;;;4973360;28;20551;-84
2023/03/28 01:16:46;;;;;;;5.22;1.23;;;11.10;74.00;;;;;;4972836;28;20443;-83
2023/03/28 01:19:31;;;;;;;4.05;1.00;;;11.10;74.00;;;;;;4972940;28;20022;-83
2023/03/28 01:22:18;;;;;;;4.90;1.02;;;11.10;74.10;;;;;;4972648;28;20042;-83
2023/03/28 01:25:12;;;;;;;3.20;1.02;;;11.10;74.10;;;;;;4973090;28;20561;-84
2023/03/28 01:28:12;;;;;;;2.50;0.98;;;11.10;74.10;;;;;;4974321;28;20038;-84
2023/03/28 01:31:17;;;;;;;3.95;1.10;;;11.10;74.10;;;;;;4972426;28;20117;-83
2023/03/28 01:34:03;;;;;;;4.60;0.98;;;11.10;74.00;;;;;;4973035;28;20026;-83
2023/03/28 01:37:02;;;;;;;3.50;0.93;;;11.10;74.00;;;;;;4972938;28;20093;-84
2023/03/28 01:39:46;;;;;;;6.38;1.55;;;11.10;74.10;;;;;;4972878;28;20033;-83
2023/03/28 01:42:50;;;;;;;4.50;1.27;;;11.10;74.00;;;;;;4972959;28;20034;-84
2023/03/28 01:45:48;;;;;;;3.97;1.00;;;11.10;74.10;;;;;;4973457;28;20026;-83
2023/03/28 01:48:33;;;;;;;4.82;0.98;;;11.10;73.90;;;;;;4960192;28;20118;-83
2023/03/28 01:51:20;;;;;;;4.38;1.00;;;11.10;74.20;;;;;;4974207;28;20059;-83
2023/03/28 01:53:53;;;;;;;2.70;0.70;;;11.10;73.70;;;;;;4973009;28;20480;-83
2023/03/28 01:56:37;;;;;;;4.07;1.17;;;11.10;74.10;;;;;;4974218;28;20027;-82
2023/03/28 01:59:16;;;;;;;3.47;0.90;;;11.10;73.90;;;;;;4972737;28;20027;-82
2023/03/28 02:01:58;;;;;;;3.05;1.00;;;11.00;73.70;;;;;;4972825;28;20030;-83
2023/03/28 02:04:25;;;;;;;3.55;1.10;;;11.10;73.90;;;;;;4972967;28;20022;-83
2023/03/28 02:06:52;;;;;;;3.72;1.10;;;11.10;74.10;;;;;;4972890;28;20035;-83
2023/03/28 02:09:21;;;;;;;4.10;1.05;;;11.00;74.00;;;;;;4976471;28;20033;-84
2023/03/28 02:11:51;;;;;;;4.22;0.93;;;11.10;73.90;;;;;;4976331;28;20034;-83
2023/03/28 02:14:21;;;;;;;3.35;1.00;;;11.10;74.10;;;;;;4977713;28;20041;-83
2023/03/28 02:16:52;;;;;;;3.35;1.00;;;11.10;74.20;;;;;;4976221;28;20077;-86
2023/03/28 02:19:23;;;;;;;4.40;1.00;;;11.10;73.90;;;;;;4976006;28;20512;-83
2023/03/28 02:22:27;;;;;;;3.17;1.00;;;11.10;74.30;;;;;;4972993;28;20023;-84
2023/03/28 02:24:52;;;;;;;3.55;0.80;;;11.10;74.20;;;;;;4977390;28;20054;-83
2023/03/28 02:27:21;;;;;;;5.53;1.02;;;11.20;74.30;;;;;;4976205;28;20034;-84
2023/03/28 02:29:48;;;;;;;3.65;0.90;;;11.10;74.30;;;;;;4976017;28;20031;-83
2023/03/28 02:32:14;;;;;;;3.85;1.00;;;11.10;74.20;;;;;;4977310;28;20110;-83
2023/03/28 02:34:42;;;;;;;3.60;1.10;;;11.10;74.30;;;;;;4976182;28;20033;-83
2023/03/28 02:37:19;;;;;;;5.15;1.27;;;11.30;74.20;;;;;;4975995;28;20031;-83
2023/03/28 02:39:57;;;;;;;3.58;0.88;;;11.10;74.30;;;;;;4976263;28;20085;-84
2023/03/28 02:42:46;;;;;;;3.50;0.95;;;11.10;74.10;;;;;;4975868;28;20078;-84
2023/03/28 02:45:30;;;;;;;3.10;0.93;;;11.00;74.20;;;;;;4956699;28;20126;-84
2023/03/28 02:48:20;;;;;;;4.60;1.35;;;11.00;74.30;;;;;;4968870;28;20035;-83
2023/03/28 02:50:54;;;;;;;3.47;0.90;;;11.10;74.40;;;;;;4975445;28;20049;-85
2023/03/28 02:53:35;;;;;;;4.10;0.95;;;11.10;74.30;;;;;;4956250;28;20062;-83
2023/03/28 02:56:15;;;;;;;3.90;0.98;;;11.10;74.40;;;;;;4956300;28;20027;-83
2023/03/28 02:58:55;;;;;;;4.78;1.30;;;11.00;74.30;;;;;;4973346;28;20035;-82
2023/03/28 03:01:24;;;;;;;4.93;0.90;;;11.00;74.10;;;;;;4975279;28;20022;-83
2023/03/28 03:03:50;;;;;;;5.18;1.48;;;11.10;74.30;;;;;;4975644;28;20058;-83
2023/03/28 03:06:16;;;;;;;4.00;1.00;;;11.00;74.30;;;;;;4976553;28;20127;-85
2023/03/28 03:08:43;;;;;;;4.50;1.13;;;11.00;74.30;;;;;;4975023;28;20046;-83
2023/03/28 03:11:08;;;;;;;4.13;1.02;;;11.00;74.30;;;;;;4974998;28;20118;-83
2023/03/28 03:13:34;;;;;;;3.95;1.13;;;11.00;74.30;;;;;;4974975;28;20062;-83
2023/03/28 03:15:59;;;;;;;4.38;1.08;;;11.00;74.30;;;;;;4975050;28;20023;-84
2023/03/28 03:18:26;;;;;;;6.05;1.30;;;11.00;74.20;;;;;;4974571;28;20023;-83
2023/03/28 03:20:52;;;;;;;4.22;0.95;;;11.00;74.30;;;;;;4974788;28;20073;-84
2023/03/28 03:23:17;;;;;;;4.32;1.02;;;11.00;74.20;;;;;;4974839;28;20026;-81
2023/03/28 03:25:46;;;;;;;6.68;1.30;;;11.00;74.40;;;;;;4974906;28;20026;-84
2023/03/28 03:28:15;;;;;;;3.17;1.10;;;11.00;74.30;;;;;;4973618;28;20034;-86
2023/03/28 03:30:46;;;;;;;4.22;1.13;;;11.10;74.40;;;;;;4977761;28;20038;-84
2023/03/28 03:33:18;;;;;;;3.88;1.00;;;11.00;74.20;;;;;;4966572;28;20041;-87
2023/03/28 03:36:12;;;;;;;4.10;1.13;;;11.00;74.20;;;;;;4970684;28;20055;-85
2023/03/28 03:38:49;;;;;;;4.20;1.10;;;11.10;74.30;;;;;;4985003;28;20022;-84
2023/03/28 03:41:15;;;;;;;2.70;0.90;;;11.10;74.10;;;;;;4963969;28;20082;-86
2023/03/28 03:43:43;;;;;;;3.97;1.20;;;11.00;74.30;;;;;;4969861;28;20027;-86
2023/03/28 03:46:26;;;;;;;3.58;1.33;;;11.00;74.30;;;;;;4984574;28;20042;-87
2023/03/28 05:43:04;;;;;;;5.47;1.45;;;10.90;74.30;;;;;;4995206;28;20051;-85
2023/03/28 05:45:30;;;;;;;7.40;1.75;;;10.90;73.30;;;;;;4996465;28;20030;-85
2023/03/28 05:47:56;;;;;;;6.20;1.23;;;10.90;72.50;;;;;;5009582;28;20030;-85
2023/03/28 05:50:22;;;;;;;4.38;1.10;;;10.90;72.60;;;;;;5009694;28;20038;-84
2023/03/28 05:52:48;;;;;;;6.28;1.30;;;10.90;73.30;;;;;;4993131;28;20033;-85
2023/03/28 05:55:13;;;;;;;4.47;1.17;;;10.90;73.30;;;;;;4992970;28;20027;-85
2023/03/28 05:57:39;;;;;;;6.32;1.27;;;10.90;73.30;;;;;;4977043;28;20054;-86
2023/03/28 06:00:10;;;;;;;4.00;1.23;;;10.90;73.40;;;;;;4995856;28;20411;-83
2023/03/28 06:02:37;;;;;;;4.60;1.08;;;11.00;73.60;;;;;;4995961;28;20045;-85
2023/03/28 06:05:02;;;;;;;5.35;1.25;;;10.90;73.50;;;;;;4996460;28;20030;-85
2023/03/28 06:07:28;;;;;;;5.55;1.65;;;11.00;73.60;;;;;;4995600;28;20030;-85
2023/03/28 06:09:54;;;;;;;4.32;1.15;;;11.00;73.60;;;;;;4996408;28;20467;-85
2023/03/28 06:12:19;;;;;;;6.18;1.60;;;10.90;73.60;;;;;;4993779;28;20030;-85
2023/03/28 06:14:45;;;;;;;5.88;1.40;;;11.00;73.70;;;;;;4996818;28;20036;-85
2023/03/28 06:17:10;;;;;;;5.20;1.30;;;11.00;73.70;;;;;;4995483;28;20025;-85
2023/03/28 06:19:36;;;;;;;4.95;1.20;;;11.00;74.00;;;;;;4996312;28;20030;-85
2023/03/28 06:22:01;;;;;;;6.05;1.17;;;11.00;73.70;;;;;;4994425;28;20026;-84
2023/03/28 06:24:27;;;;;;;5.97;1.42;;;11.10;73.60;;;;;;4995001;28;20183;-85
2023/03/28 06:26:52;;;;;;;4.03;1.00;;;11.10;73.50;;;;;;4996173;28;20034;-85
2023/03/28 06:29:18;;;;;;;5.10;1.10;;;11.20;73.50;;;;;;4981893;28;20038;-85
2023/03/28 06:31:44;;;;;;;5.18;1.50;;;11.20;73.30;;;;;;4990109;28;20095;-86
2023/03/28 06:34:09;;;;;;;3.30;1.15;;;11.20;73.20;;;;;;4999698;28;20023;-86
2023/03/28 06:36:35;;;;;;;5.55;1.35;;;11.20;73.20;;;;;;4999604;28;20033;-86
2023/03/28 06:39:00;;;;;;;4.63;1.38;;;11.30;73.20;;;;;;4982847;28;20023;-85
2023/03/28 06:41:26;;;;;;;4.35;1.08;;;11.30;73.50;;;;;;4998319;28;20515;-86
2023/03/28 06:43:51;;;;;;;4.30;1.48;;;11.30;73.10;;;;;;5001413;28;20068;-85
2023/03/28 06:46:17;;;;;;;4.50;1.15;;;11.30;73.00;;;;;;5001261;28;20034;-85
2023/03/28 06:48:43;;;;;;;3.33;1.20;;;11.40;73.00;;;;;;5002474;28;20037;-85
2023/03/28 06:51:08;;;;;;;4.43;1.20;;;11.40;72.90;;;;;;5001534;28;20041;-86
2023/03/28 06:53:37;;;;;;;4.32;0.88;;;11.40;73.00;;;;;;4999783;28;20372;-86
2023/03/28 06:56:02;;;;;;;4.93;1.15;;;11.40;72.90;;;;;;5000022;28;20030;-85
2023/03/28 06:58:28;;;;;;;2.90;0.80;;;11.40;72.80;;;;;;5000968;28;20027;-85
2023/03/28 07:00:54;;;;;;;3.72;1.00;;;11.50;73.10;;;;;;5000299;28;20077;-85
2023/03/28 07:03:19;;;;;;;5.28;1.40;;;11.50;73.00;;;;;;4994579;28;20025;-85
2023/03/28 07:05:45;;;;;;;4.20;1.30;;;11.50;72.90;;;;;;5000449;28;20084;-85
2023/03/28 07:08:12;;;;;;;3.20;1.00;;;11.50;72.80;;;;;;4998620;28;20018;-85
2023/03/28 07:10:39;;;;;;;4.07;1.35;;;11.50;72.80;;;;;;4997353;28;20069;-85
2023/03/28 07:13:05;;;;;;;3.45;1.08;;;11.50;72.80;;;;;;4997765;28;20026;-85
2023/03/28 07:15:30;;;;;;;3.40;1.17;;;11.50;72.90;;;;;;4997630;28;20053;-85
2023/03/28 07:17:56;;;;;;;2.50;1.05;;;11.50;73.20;;;;;;4997469;28;20029;-85
2023/03/28 07:20:22;;;;;;;5.18;1.20;;;11.50;73.30;;;;;;4998409;28;20029;-85
2023/03/28 07:22:48;;;;;;;5.22;1.20;;;11.50;73.10;;;;;;5000650;28;20048;-85
2023/03/28 07:25:13;;;;;;;3.97;1.10;;;11.50;73.20;;;;;;5000473;28;20030;-85
2023/03/28 07:27:39;;;;;;;4.32;0.88;;;11.60;73.60;;;;;;5000485;28;20032;-85
2023/03/28 07:30:06;;;;;;;3.90;0.95;;;11.70;73.00;;;;;;4996866;28;20030;-84
2023/03/28 07:32:31;;;;;;;2.75;0.88;;;11.70;73.00;;;;;;4981646;28;20559;-85
2023/03/28 07:34:57;;;;;;;2.75;1.00;;;11.70;72.80;;;;;;4999205;28;20026;-85
2023/03/28 07:37:23;;;;;;;3.70;1.10;;;11.80;72.80;;;;;;4999014;28;20029;-85
2023/03/28 07:39:48;;;;;;;3.65;1.15;;;11.80;73.10;;;;;;4998866;28;20026;-85
2023/03/28 07:42:14;;;;;;;2.95;0.93;;;11.80;72.90;;;;;;4998033;28;20022;-85
2023/03/28 07:44:40;;;;;;;4.15;1.10;;;11.90;73.10;;;;;;4983306;28;20027;-85
2023/03/28 07:47:08;;;;;;;5.05;1.23;;;11.90;73.00;;;;;;4998808;28;20491;-85
2023/03/28 07:49:33;;;;;;;3.90;1.17;;;12.00;73.10;;;;;;4999989;28;20026;-85
2023/03/28 07:51:59;;;;;;;4.10;1.45;;;11.90;72.90;;;;;;4987813;28;20066;-85
2023/03/28 07:54:27;;;;;;;4.72;1.27;;;12.00;72.70;;;;;;4992497;28;20106;-85
2023/03/28 07:56:53;;;;;;;3.20;1.13;;;12.10;72.90;;;;;;4997480;28;20461;-85
2023/03/28 07:59:18;;;;;;;4.50;1.45;;;12.10;72.50;;;;;;4997516;28;20069;-85
2023/03/28 08:01:45;;;;;;;3.80;1.10;;;12.10;72.80;;;;;;4996473;28;20094;-85
2023/03/28 08:04:12;;;;;;;5.05;1.50;;;12.10;72.80;;;;;;4998324;28;20538;-84
2023/03/28 08:06:39;;;;;;;3.55;1.20;;;12.10;72.80;;;;;;4998027;28;20125;-85
2023/03/28 08:09:09;;;;;;;3.92;1.20;;;12.20;72.30;;;;;;4996816;28;20030;-85
2023/03/28 08:11:36;;;;;;;5.22;1.33;;;12.20;72.50;;;;;;4993624;28;20030;-85
2023/03/28 08:14:02;;;;;;;4.65;1.20;;;12.20;72.40;;;;;;4992789;28;20042;-85
2023/03/28 08:16:28;;;;;;;4.53;1.40;;;12.20;72.10;;;;;;4995745;28;20027;-85
2023/03/28 08:18:55;;;;;;;3.75;1.10;;;12.30;72.50;;;;;;4997403;28;20019;-85
2023/03/28 08:21:21;;;;;;;4.10;1.20;;;12.30;72.40;;;;;;4989661;28;20041;-84
2023/03/28 08:23:46;;;;;;;3.65;1.30;;;12.30;72.30;;;;;;4994324;28;20524;-84
2023/03/28 08:26:12;;;;;;;5.65;1.50;;;12.30;72.50;;;;;;5011348;28;20034;-85
2023/03/28 08:28:38;;;;;;;3.22;1.05;;;12.40;72.40;;;;;;4995313;28;20376;-85
2023/03/28 08:31:12;;;;;;;4.32;1.13;;;12.40;72.30;;;;;;4994380;28;20032;-85
2023/03/28 08:33:41;;;;;;;3.45;1.38;;;12.50;72.10;;;;;;4992512;28;20035;-85
2023/03/28 08:36:08;;;;;;;2.85;1.20;;;12.50;72.20;;;;;;4992933;28;20031;-84
2023/03/28 08:38:34;;;;;;;4.20;1.20;;;12.50;72.00;;;;;;4992889;28;20022;-86
2023/03/28 08:41:17;;;;;;;4.05;1.20;;;12.50;72.00;;;;;;4993756;28;20061;-85
2023/03/28 08:44:08;;;;;;;3.17;1.25;;;12.50;72.30;;;;;;4984809;28;20111;-84
2023/03/28 08:46:35;;;;;;;3.50;1.10;;;12.50;72.30;;;;;;4974064;28;20088;-85
2023/03/28 08:49:06;;;;;;;3.03;1.05;;;12.50;72.20;;;;;;4992669;28;20061;-85
2023/03/28 08:51:36;;;;;;;3.60;1.20;;;12.60;72.40;;;;;;4991937;28;20034;-85
2023/03/28 08:54:02;;;;;;;3.35;1.30;;;12.60;72.10;;;;;;4992111;28;20088;-85
2023/03/28 08:56:29;;;;;;;3.88;1.20;;;12.60;72.00;;;;;;4991759;28;20117;-84
2023/03/28 08:59:06;;;;;;;3.38;1.10;;;12.70;72.20;;;;;;4990066;28;20110;-84
2023/03/28 09:01:31;;;;;;;2.95;1.10;;;12.70;72.00;;;;;;4988246;28;20027;-85
2023/03/28 09:04:01;;;;;;;4.15;1.27;;;12.70;72.60;;;;;;4975087;28;20033;-85
2023/03/28 09:06:43;;;;;;;3.78;1.10;;;12.70;71.80;;;;;;4994314;28;20026;-86
2023/03/28 09:09:31;;;;;;;4.00;1.20;;;12.70;72.10;;;;;;4993237;28;20034;-85
2023/03/28 09:12:39;;;;;;;2.33;1.02;;;12.70;71.90;;;;;;4987025;28;20026;-86
2023/03/28 09:15:44;;;;;;;2.63;1.00;;;12.80;72.30;;;;;;4969485;28;20526;-85
2023/03/28 09:18:36;;;;;;;3.42;1.30;;;12.80;71.80;;;;;;4992737;28;20026;-85
2023/03/28 09:21:19;;;;;;;3.15;1.10;;;12.80;71.90;;;;;;4983918;28;20019;-85
2023/03/28 09:23:59;;;;;;;3.78;1.40;;;12.80;71.90;;;;;;4973876;28;20030;-85
2023/03/28 09:26:39;;;;;;;2.85;1.08;;;12.80;72.50;;;;;;4981165;28;20034;-85
2023/03/28 09:29:16;;;;;;;3.67;1.05;;;12.80;72.40;;;;;;4992535;28;20018;-85
2023/03/28 09:31:48;;;;;;;3.92;1.38;;;12.70;72.00;;;;;;4990449;28;20077;-83
2023/03/28 09:34:26;;;;;;;;;;;12.70;71.80;;;;;;4984309;28;20037;-84
2023/03/28 09:36:55;;;;;;;4.15;1.00;;;12.60;72.20;;;;;;4993027;28;19906;-84
2023/03/28 09:39:42;;;;;;;3.63;1.30;;;12.60;73.00;;;;;;4992988;28;20018;-85
2023/03/28 09:42:24;;;;;;;3.40;1.10;;;12.50;72.40;;;;;;4990706;28;20036;-85
2023/03/28 09:45:06;;;;;;;3.42;1.10;;;12.50;72.60;;;;;;4991813;28;20034;-84
2023/03/28 09:47:32;;;;;;;4.75;1.13;;;12.50;72.70;;;;;;4991818;28;20062;-84
2023/03/28 09:49:58;;;;;;;4.70;1.00;;;12.50;72.90;;;;;;4992928;28;20034;-85
2023/03/28 09:52:23;;;;;;;3.47;1.10;;;12.50;72.50;;;;;;4993773;28;20054;-86
2023/03/28 09:54:49;;;;;;;1.98;0.90;;;12.40;72.60;;;;;;5001007;28;20088;-85
2023/03/28 09:57:15;;;;;;;2.97;0.85;;;12.40;72.90;;;;;;4999153;28;20026;-85
2023/03/28 09:59:41;;;;;;;3.08;1.25;;;12.40;72.90;;;;;;4998423;28;20015;-86
2023/03/28 10:02:27;;;;;;;3.42;1.20;;;12.40;72.90;;;;;;4985755;28;21335;-85
2023/03/28 10:04:53;;;;;;;3.45;1.23;;;12.40;72.90;;;;;;4987797;28;20023;-85
2023/03/28 10:07:41;;;;;;;3.50;1.00;;;12.30;72.70;;;;;;4998470;28;20124;-85
2023/03/28 10:10:16;;;;;;;3.25;1.00;;;12.30;72.70;;;;;;4998941;28;20026;-85
2023/03/28 10:12:46;;;;;;;3.55;1.23;;;12.30;72.80;;;;;;4998381;28;20022;-86
2023/03/28 10:15:38;;;;;;;4.50;1.13;;;12.30;72.90;;;;;;4999592;28;20019;-85
2023/03/28 10:18:04;;;;;;;4.50;1.13;;;12.30;72.90;;;;;;4998145;28;20062;-84
2023/03/28 10:20:35;;;;;;;2.65;0.85;;;12.30;72.80;;;;;;4990986;28;20634;-84
2023/03/28 10:23:02;;;;;;;2.63;0.90;;;12.30;72.80;;;;;;4993465;28;20033;-85
2023/03/28 10:25:48;;;;;;;3.28;1.05;;;12.30;72.60;;;;;;4992055;28;20801;-85
2023/03/28 10:28:27;;;;;;;4.57;1.30;;;12.30;72.90;;;;;;4977568;28;20089;-84
2023/03/28 10:30:56;;;;;;;4.90;1.45;;;12.30;73.00;;;;;;4990459;28;20037;-85
2023/03/28 10:33:30;;;;;;;3.92;1.25;;;12.20;72.90;;;;;;4984224;28;20050;-85
2023/03/28 10:36:31;;;;;;;4.30;1.10;;;12.20;72.90;;;;;;4995816;28;20019;-85
2023/03/28 10:38:57;;;;;;;3.47;1.30;;;12.20;73.00;;;;;;4980931;28;20448;-85
2023/03/28 10:41:28;;;;;;;3.92;1.10;;;12.10;73.00;;;;;;4989314;28;20022;-85
2023/03/28 10:43:55;;;;;;;3.47;1.15;;;12.10;73.60;;;;;;5001615;28;20046;-85
2023/03/28 10:46:25;;;;;;;4.13;1.00;;;12.10;73.10;;;;;;5001737;28;20026;-85
2023/03/28 10:48:56;;;;;;;2.53;1.02;;;12.10;73.20;;;;;;5001760;28;20030;-85
2023/03/28 10:51:23;;;;;;;4.35;1.17;;;12.10;73.20;;;;;;5001311;28;20036;-85
2023/03/28 10:54:24;;;;;;;3.20;1.00;;;12.10;73.20;;;;;;5000986;28;20056;-85
2023/03/28 10:56:59;;;;;;;3.15;1.08;;;12.10;73.20;;;;;;4988010;28;20034;-85
2023/03/28 10:59:50;;;;;;;3.50;1.15;;;12.00;73.20;;;;;;5000798;28;20391;-85
2023/03/28 11:02:33;;;;;;;3.10;1.10;;;12.00;73.30;;;;;;4995902;28;20117;-85
2023/03/28 11:05:31;;;;;;;3.40;1.20;;;12.00;73.30;;;;;;5001960;28;20026;-85
2023/03/28 11:08:29;;;;;;;2.85;1.00;;;12.00;73.30;;;;;;4995975;28;20027;-85
2023/03/28 11:11:26;;;;;;;2.72;1.00;;;12.00;73.30;;;;;;4990208;28;20639;-85
2023/03/28 11:14:17;;;;;;;4.03;1.55;;;12.00;73.40;;;;;;4997702;28;20046;-85
2023/03/28 11:16:54;;;;;;;4.20;1.20;;;12.00;73.30;;;;;;4998975;28;20436;-85
2023/03/28 11:19:41;;;;;;;2.45;0.95;;;12.00;73.20;;;;;;5000229;28;20023;-85
2023/03/28 11:22:07;;;;;;;4.07;1.13;;;12.10;73.40;;;;;;4989817;28;20023;-85
2023/03/28 11:24:38;;;;;;;3.10;1.23;;;12.00;73.40;;;;;;4980445;28;20037;-85
2023/03/28 11:27:09;;;;;;;3.30;1.00;;;12.00;73.30;;;;;;4994414;28;20141;-85
2023/03/28 11:29:50;;;;;;;2.60;0.90;;;12.10;73.30;;;;;;4975514;28;20300;-85
2023/03/28 11:32:22;;;;;;;3.85;1.13;;;12.10;73.30;;;;;;4993284;28;20037;-84
2023/03/28 11:35:27;;;;;;;3.38;1.00;;;12.00;73.30;;;;;;4975757;28;20038;-85
2023/03/28 11:38:16;;;;;;;3.45;1.13;;;12.00;73.40;;;;;;4975766;28;20039;-84
2023/03/28 17:43:19;;;;;;;7.85;2.88;;;12.50;79.20;;;;;;5080478;23;20054;-86
2023/03/28 17:45:44;;;;;;;11.90;3.63;;;12.60;79.70;;;;;;4980077;28;20033;-84
2023/03/28 17:48:11;;;;;;;9.20;3.20;;;12.60;80.30;;;;;;4979871;28;20030;-87
2023/03/28 17:50:37;;;;;;;11.25;3.30;;;12.60;80.40;;;;;;4988250;28;20034;-87
2023/03/28 17:53:03;;;;;;;13.90;3.08;;;12.70;81.30;;;;;;4967540;28;20046;-88
2023/03/28 17:55:28;;;;;;;10.60;3.90;;;12.70;81.40;;;;;;4962558;29;20082;-87
2023/03/28 17:57:54;;;;;;;9.60;3.40;;;12.80;81.60;;;;;;4963208;29;20022;-86
2023/03/28 18:00:20;;;;;;;12.05;3.22;;;12.80;82.00;;;;;;4962617;29;20069;-86
2023/03/28 18:02:47;;;;;;;12.02;3.40;;;12.80;82.40;;;;;;4962915;29;20031;-86
2023/03/28 18:05:12;;;;;;;10.63;3.50;;;12.80;82.40;;;;;;4950907;29;20035;-86
2023/03/28 18:07:39;;;;;;;14.38;3.83;;;12.90;82.50;;;;;;4957435;29;20393;-86
2023/03/28 18:10:07;;;;;;;16.17;4.30;;;12.90;82.40;;;;;;4961579;29;20502;-85
2023/03/28 18:12:33;;;;;;;13.40;4.00;;;12.90;82.90;;;;;;4955174;29;20511;-87
2023/03/28 18:14:58;;;;;;;14.30;4.18;;;12.90;83.00;;;;;;4953769;29;20028;-86
2023/03/28 18:17:24;;;;;;;14.88;4.15;;;13.00;82.70;;;;;;4956101;29;20033;-87
2023/03/28 18:19:49;;;;;;;14.75;4.10;;;13.00;82.90;;;;;;4958802;29;20477;-85
2023/03/28 18:22:15;;;;;;;20.33;4.55;;;13.00;82.70;;;;;;4960516;29;20023;-86
2023/03/28 18:24:41;;;;;;;15.75;4.78;;;13.00;82.20;;;;;;4962537;28;20027;-86
2023/03/28 18:27:06;;;;;;;12.65;4.35;;;13.00;80.70;;;;;;4978296;28;20031;-86
2023/03/28 18:29:32;;;;;;;18.30;4.55;;;13.00;80.40;;;;;;4973476;28;20487;-87
2023/03/28 18:31:57;;;;;;;13.35;4.47;;;13.00;80.20;;;;;;4959552;29;20027;-89
2023/03/28 18:34:22;;;;;;;12.07;4.40;;;12.90;80.20;;;;;;4956561;29;20476;-86
2023/03/28 18:36:50;;;;;;;11.55;4.53;;;12.80;80.10;;;;;;4956695;29;20031;-86
2023/03/28 18:39:15;;;;;;;15.50;4.00;;;12.80;80.20;;;;;;4956636;29;20023;-86
2023/03/28 18:41:41;;;;;;;13.40;4.25;;;12.70;80.30;;;;;;4955619;29;20156;-85
2023/03/28 18:44:06;;;;;;;12.52;4.43;;;12.70;80.10;;;;;;4956710;29;20476;-86
2023/03/28 18:46:32;;;;;;;13.02;4.00;;;12.60;80.20;;;;;;4956707;29;20066;-86
2023/03/28 18:48:59;;;;;;;14.65;4.43;;;12.60;80.20;;;;;;4955805;28;20400;-86
2023/03/28 18:51:25;;;;;;;12.05;4.28;;;12.50;80.10;;;;;;4955359;29;20031;-87
2023/03/28 18:53:52;;;;;;;13.05;4.53;;;12.60;80.10;;;;;;4940102;29;20032;-87
2023/03/28 18:56:18;;;;;;;14.90;3.90;;;12.50;80.00;;;;;;4943192;29;20031;-86
2023/03/28 18:58:44;;;;;;;12.25;3.72;;;12.50;79.90;;;;;;4955980;29;20027;-86
2023/03/28 19:01:11;;;;;;;11.70;4.18;;;12.50;79.90;;;;;;4955736;29;20043;-85
2023/03/28 19:03:39;;;;;;;12.40;4.07;;;12.50;79.90;;;;;;4957345;28;20023;-88
2023/03/28 19:06:05;;;;;;;11.82;4.47;;;12.40;79.70;;;;;;4955515;29;20110;-89
2023/03/28 19:08:31;;;;;;;12.00;3.67;;;12.40;79.70;;;;;;4955590;29;20102;-88
2023/03/28 19:10:59;;;;;;;12.63;3.85;;;12.40;79.50;;;;;;4956615;28;20470;-88
2023/03/28 19:13:25;;;;;;;13.35;4.30;;;12.40;79.40;;;;;;4955330;29;20082;-87
2023/03/28 19:16:03;;;;;;;11.65;3.55;;;12.40;79.30;;;;;;4955533;29;20037;-88
2023/03/28 19:18:29;;;;;;;12.90;3.80;;;12.40;79.20;;;;;;4955755;29;20023;-88
2023/03/28 19:20:55;;;;;;;9.90;3.85;;;12.30;79.20;;;;;;4955741;29;20114;-88
2023/03/28 19:23:22;;;;;;;11.23;3.55;;;12.40;79.20;;;;;;4955288;29;20020;-87
2023/03/28 19:25:48;;;;;;;13.07;4.32;;;12.30;79.10;;;;;;4956462;29;20035;-88
2023/03/28 19:28:14;;;;;;;12.57;3.67;;;12.30;79.10;;;;;;4955926;29;20041;-87
2023/03/28 19:30:40;;;;;;;14.23;3.65;;;12.30;78.90;;;;;;4955095;29;20513;-88
2023/03/28 19:33:06;;;;;;;10.98;3.58;;;12.30;79.10;;;;;;4956206;28;20115;-89
2023/03/28 19:35:31;;;;;;;12.77;3.63;;;12.30;78.90;;;;;;4941561;29;20028;-88
2023/03/28 19:37:58;;;;;;;10.52;3.33;;;12.20;79.00;;;;;;4954391;29;20504;-87
2023/03/28 19:40:25;;;;;;;12.00;3.75;;;12.30;79.00;;;;;;4955146;29;20556;-88
2023/03/28 19:42:50;;;;;;;12.55;3.55;;;12.20;78.80;;;;;;4940987;29;20078;-85
2023/03/28 19:45:16;;;;;;;11.98;3.47;;;12.20;78.80;;;;;;4955206;29;20051;-87
2023/03/28 19:47:41;;;;;;;14.57;3.67;;;12.20;78.70;;;;;;4954977;29;20086;-85
2023/03/28 19:50:10;;;;;;;16.67;3.80;;;12.20;78.40;;;;;;4954868;29;20031;-87
2023/03/28 19:52:37;;;;;;;12.18;3.78;;;12.20;78.00;;;;;;4954671;29;20039;-86
2023/03/28 19:55:02;;;;;;;15.23;3.42;;;12.20;77.50;;;;;;4954902;29;20097;-86
2023/03/28 19:57:28;;;;;;;9.48;2.90;;;12.20;77.10;;;;;;4955022;29;20059;-87
2023/03/28 19:59:53;;;;;;;11.15;3.13;;;12.20;77.10;;;;;;4956220;29;20019;-87
2023/03/28 20:02:19;;;;;;;11.20;3.10;;;12.20;77.20;;;;;;4954101;28;20818;-87
2023/03/28 20:04:44;;;;;;;12.60;3.85;;;12.20;77.20;;;;;;4954631;29;20029;-87
2023/03/28 20:07:11;;;;;;;14.50;3.55;;;12.20;77.20;;;;;;4954815;29;20543;-86
2023/03/28 20:09:37;;;;;;;10.18;3.40;;;12.20;77.20;;;;;;4954942;29;20074;-87
2023/03/28 20:12:03;;;;;;;16.13;4.15;;;12.20;77.30;;;;;;4954106;29;20031;-87
2023/03/28 20:14:28;;;;;;;12.35;3.33;;;12.20;77.40;;;;;;4956123;29;20110;-88
2023/03/28 20:16:54;;;;;;;11.38;3.08;;;12.10;77.40;;;;;;4966865;28;20369;-88
2023/03/28 20:19:21;;;;;;;13.20;4.03;;;12.10;77.60;;;;;;4966140;28;20026;-87
2023/03/28 20:21:47;;;;;;;10.93;3.17;;;12.10;77.50;;;;;;4956915;29;20023;-89
2023/03/28 20:24:13;;;;;;;11.73;3.40;;;12.10;77.60;;;;;;4938834;29;20028;-87
2023/03/28 20:26:39;;;;;;;9.65;2.97;;;12.10;77.70;;;;;;4941016;29;20035;-85
2023/03/28 20:29:04;;;;;;;10.98;3.58;;;12.10;77.60;;;;;;4941101;29;20056;-85
2023/03/28 20:31:30;;;;;;;11.63;3.92;;;12.00;77.60;;;;;;4938890;29;20023;-86
2023/03/28 20:33:55;;;;;;;12.48;3.28;;;12.00;77.70;;;;;;4955067;29;20023;-88
2023/03/28 20:36:21;;;;;;;12.60;3.65;;;12.00;77.60;;;;;;4957920;29;20079;-87
2023/03/28 20:38:47;;;;;;;10.88;3.50;;;12.00;77.60;;;;;;4959028;29;20390;-86
2023/03/28 20:41:15;;;;;;;9.73;3.03;;;12.00;77.60;;;;;;4958141;29;20023;-87
2023/03/28 20:43:45;;;;;;;10.48;3.65;;;11.90;77.50;;;;;;4953636;29;20029;-83
2023/03/28 20:46:12;;;;;;;7.82;2.55;;;11.90;77.60;;;;;;4950564;29;20172;-86
2023/03/28 20:48:38;;;;;;;10.02;3.25;;;11.90;77.40;;;;;;4954552;29;20032;-86
2023/03/28 20:51:13;;;;;;;10.20;2.83;;;11.90;77.50;;;;;;4954688;29;20058;-87
2023/03/28 20:53:43;;;;;;;9.57;2.60;;;11.90;77.40;;;;;;4957745;29;20654;-86
2023/03/28 20:56:10;;;;;;;7.28;2.80;;;11.90;77.40;;;;;;4956990;29;20019;-87
2023/03/28 20:58:38;;;;;;;9.75;3.17;;;11.90;77.50;;;;;;4956579;28;20019;-86
2023/03/28 21:01:05;;;;;;;7.53;2.47;;;11.90;77.50;;;;;;4953955;29;20035;-86